Terminal Aerodrome Forecast
Issued by NWS

Home | Current Version | Previous Version | Text Only | Print | Product List | Glossary On
Versions: 1 2 3 4 5 6 7 8 9 10 11 12
000
FTUS43 KGRR 271100 RRA
TAFJXN
TAF
KJXN 271141Z 2712/2812 35009KT P6SM BKN050
      TEMPO 2714/2716 OVC030
     FM271600 35010KT P6SM OVC035
     FM280200 36005KT P6SM SCT050=

USA.gov is the U.S. government's official web portal to all federal, state and local government web resources and services.